メインページ
METAR-TAF:

METAR-TAF

空港 :

テルアビブ / ベン・グリオン, イスラエル

ベン・グリオン国際空港

緯度: 32-00N, 経度: 034-54E, 海抜: 40m

現時点の気象観測

当レポートは6分前の23:50(UTC)に作成
変向風 3kt
気温 12°C
湿度 82%
気圧 1011 hPa
視程10km以上
1,500メートル以下は雲なし、積乱雲なし

METAR: LLBG 242350Z VRB03KT CAVOK 12/09 Q1011 NOSIG RMK FEW100

時間: 01:56 (23:56 UTC)

予報

当レポートは54分前の23:02(UTC)に作成
予報は25日の 00時(UTC)から 25日の 24時(UTC)まで有効
南東の風 6kt
視程10km以上
1,500メートル以下は雲なし、積乱雲なし
25日の 07時(UTC)から 25日の 09時(UTC)まで徐々に
西/南西の風 13kt
視程: 8000m
高度2500ftの雲はほとんどない
確率 30%
25日の 09時(UTC)から 25日の 13時(UTC)まで
視程: 5000m
高度2500ftの雲は散在している
高度6000ftの千切れ雲あり
小雨, 煙霧
25日の 13時(UTC)から 25日の 15時(UTC)まで徐々に
北/北西の風 6kt
25日の 19時(UTC)から 25日の 21時(UTC)まで徐々に
南東の風 4kt

TAF: LLBG 242302Z 2500/2524 14006KT CAVOK BECMG 2507/2509 24013KT 8000 FEW025 PROB30 2509/2513 5000 -RA HZ SCT025 BKN060 BECMG 2513/2515 33006KT BECMG 2519/2521 14004KT TX21/2511Z TN09/2504Z

4,000以上の空港の気象観測と天気予報(METAR報とTAF報)

利用可能な観測所は地図上に黄色い丸と赤い丸で示す。

丸の上にカーソルを重ねると観測所名を参照できる。

次にクリックすると気象観測と天気予報を参照できる。

マップの切り替え:黒色「×」印の緑ボタンをクリックして拡大、「-」印の緑ボタンをクリックして縮小、緑色の三角印をクリックして隣りの地図に切り替え


METAR-TAF: